Time;durP1;ratioP1;P1;durP2;ratioP2;P2;SDS_P1;SDS_P2;PMS_P1;PMS_P2;Temp;Humidity;BMP_temperature;BMP_pressure;BME280_temperature;BME280_humidity;BME280_pressure;Samples;Min_cycle;Max_cycle;Signal;HPM_P1;HPM_P2
2022/03/11 00:01:16;;;;;;;3.85;3.00;;;;;;;19.86;38.27;97948.25;10093094;29;20444;-59
2022/03/11 00:06:35;;;;;;;3.08;2.65;;;;;;;19.85;38.30;97945.81;10093350;29;20049;-59
2022/03/11 00:11:55;;;;;;;3.55;2.80;;;;;;;19.82;38.24;97947.22;10094050;29;20057;-59
2022/03/11 00:17:14;;;;;;;3.13;2.83;;;;;;;19.82;38.17;97946.44;10093093;29;20057;-59
2022/03/11 00:22:34;;;;;;;4.40;3.00;;;;;;;19.78;38.21;97948.94;10069259;29;20060;-59
2022/03/11 00:27:53;;;;;;;3.28;2.92;;;;;;;19.78;38.03;97950.81;10098099;29;20532;-59
2022/03/11 00:33:13;;;;;;;4.20;2.80;;;;;;;19.76;37.98;97951.13;10072072;29;20060;-59
2022/03/11 00:38:33;;;;;;;3.47;2.95;;;;;;;19.75;38.10;97946.81;10088237;29;20068;-59
2022/03/11 00:43:55;;;;;;;3.80;2.90;;;;;;;19.73;37.91;97940.91;10078367;29;20049;-59
2022/03/11 00:49:14;;;;;;;3.60;2.90;;;;;;;19.71;37.93;97952.00;10107932;29;20049;-59
2022/03/11 00:54:34;;;;;;;3.58;2.78;;;;;;;19.71;37.74;97948.47;10089178;29;20052;-59
2022/03/11 00:59:53;;;;;;;3.20;2.90;;;;;;;19.68;37.81;97932.84;10099387;29;20065;-59
2022/03/11 01:05:12;;;;;;;2.92;2.65;;;;;;;19.65;37.76;97926.13;10099898;29;20052;-59
2022/03/11 01:10:32;;;;;;;2.95;2.60;;;;;;;19.64;37.66;97924.53;10100110;29;20057;-59
2022/03/11 01:15:51;;;;;;;2.92;2.58;;;;;;;19.61;37.57;97930.53;10086175;29;20532;-59
2022/03/11 01:21:11;;;;;;;3.50;2.53;;;;;;;19.62;37.67;97934.03;10103706;29;20457;-59
2022/03/11 01:26:31;;;;;;;3.08;2.67;;;;;;;19.59;37.62;97921.13;10097072;29;20053;-59
2022/03/11 01:31:51;;;;;;;2.70;2.50;;;;;;;19.57;37.73;97924.13;10095181;29;20089;-59
2022/03/11 01:37:11;;;;;;;2.97;2.67;;;;;;;19.55;37.70;97915.50;10111374;29;20473;-59
2022/03/11 01:42:34;;;;;;;4.10;3.03;;;;;;;19.53;37.57;97917.69;10111332;29;20104;-59
2022/03/11 01:47:53;;;;;;;2.80;2.55;;;;;;;19.52;37.64;97910.69;10110740;29;20045;-59
2022/03/11 01:53:13;;;;;;;2.97;2.60;;;;;;;19.50;37.48;97902.88;10098590;29;20094;-59
2022/03/11 01:58:34;;;;;;;2.78;2.50;;;;;;;19.50;37.34;97905.59;10109383;29;20047;-59
2022/03/11 02:03:57;;;;;;;2.65;2.38;;;;;;;19.47;37.42;97898.06;10097222;29;20048;-59
2022/03/11 02:09:17;;;;;;;2.70;2.50;;;;;;;19.46;37.51;97901.06;10098041;29;20478;-59
2022/03/11 02:14:37;;;;;;;2.90;2.60;;;;;;;19.44;37.44;97892.44;10097765;29;20501;-59
2022/03/11 02:19:57;;;;;;;3.05;2.75;;;;;;;19.43;37.46;97891.66;10090881;29;20068;-59
2022/03/11 02:25:16;;;;;;;2.20;2.00;;;;;;;19.40;37.46;97881.44;10096841;29;20420;-59
2022/03/11 02:30:36;;;;;;;2.95;2.28;;;;;;;19.39;37.30;97879.03;10096544;29;20383;-59
2022/03/11 02:35:56;;;;;;;2.92;2.40;;;;;;;19.37;37.22;97879.34;10097069;29;20429;-59
2022/03/11 02:41:16;;;;;;;2.80;2.33;;;;;;;19.35;37.46;97879.63;10096349;29;20064;-59
2022/03/11 02:46:36;;;;;;;2.55;2.35;;;;;;;19.34;37.30;97877.22;10096703;29;20414;-59
2022/03/11 02:51:58;;;;;;;2.22;2.03;;;;;;;19.32;37.34;97874.00;10096045;29;20053;-59
2022/03/11 02:57:18;;;;;;;2.40;2.17;;;;;;;19.31;37.16;97867.00;10083368;29;20045;-59
2022/03/11 03:02:37;;;;;;;2.88;2.35;;;;;;;19.30;37.28;97868.09;10107921;29;20052;-59
2022/03/11 03:07:57;;;;;;;2.63;2.30;;;;;;;19.28;37.26;97856.78;10095906;29;20446;-59
2022/03/11 03:13:18;;;;;;;4.05;2.33;;;;;;;19.27;37.15;97855.19;10098908;29;20056;-59
2022/03/11 03:18:37;;;;;;;2.30;2.03;;;;;;;19.24;37.17;97851.16;10094525;29;21280;-59
2022/03/11 03:23:56;;;;;;;2.40;2.20;;;;;;;19.23;37.31;97860.38;10091502;29;20057;-59
2022/03/11 03:29:15;;;;;;;2.45;2.25;;;;;;;19.21;37.33;97854.47;10092345;29;20598;-59
2022/03/11 03:34:36;;;;;;;2.20;2.00;;;;;;;19.19;37.29;97856.69;10092146;29;20064;-59
2022/03/11 03:39:56;;;;;;;2.10;1.83;;;;;;;19.17;37.31;97854.25;10103428;29;20100;-59
2022/03/11 03:45:15;;;;;;;2.58;2.20;;;;;;;19.16;37.38;97860.75;10092813;29;20049;-59
2022/03/11 03:50:35;;;;;;;1.80;1.70;;;;;;;19.14;37.19;97854.84;10093727;29;20057;-59
2022/03/11 03:55:54;;;;;;;2.38;2.17;;;;;;;19.12;37.05;97851.63;10092590;29;20104;-60
2022/03/11 04:01:14;;;;;;;2.40;2.20;;;;;;;19.11;37.02;97843.81;10092894;29;20075;-59
2022/03/11 04:06:34;;;;;;;2.42;2.00;;;;;;;19.09;37.03;97844.13;10106290;29;20093;-59
2022/03/11 04:11:54;;;;;;;2.38;2.17;;;;;;;19.09;37.04;97840.63;10093038;29;20417;-59
2022/03/11 04:17:13;;;;;;;2.28;2.08;;;;;;;19.06;36.94;97847.41;10091305;29;20049;-59
2022/03/11 04:22:33;;;;;;;2.35;1.90;;;;;;;19.04;37.02;97843.41;10090151;29;20056;-58
2022/03/11 04:27:53;;;;;;;2.22;1.92;;;;;;;19.05;36.99;97845.00;10073579;29;20049;-59
2022/03/11 04:33:14;;;;;;;2.28;2.08;;;;;;;19.02;37.00;97843.69;10105992;29;20048;-59
2022/03/11 04:38:34;;;;;;;2.25;1.98;;;;;;;19.01;36.82;97842.09;10078449;29;20053;-59
2022/03/11 04:43:53;;;;;;;2.33;1.90;;;;;;;18.99;36.85;97832.69;10103043;29;20056;-59
2022/03/11 04:49:12;;;;;;;2.30;2.05;;;;;;;18.98;36.92;97847.31;10105165;29;20034;-59
2022/03/11 04:54:32;;;;;;;2.33;2.13;;;;;;;18.96;36.86;97834.88;10092794;29;20574;-59
2022/03/11 04:59:51;;;;;;;2.20;1.90;;;;;;;18.97;36.88;97841.06;10092260;29;20057;-59
2022/03/11 05:05:13;;;;;;;3.13;1.80;;;;;;;18.97;36.82;97841.06;10076943;29;20480;-59
2022/03/11 05:10:32;;;;;;;3.47;1.95;;;;;;;18.96;37.25;97847.59;10087169;29;20461;-59
2022/03/11 05:15:51;;;;;;;2.50;2.08;;;;;;;18.97;37.21;97862.69;10090092;29;20053;-60
2022/03/11 05:21:10;;;;;;;2.03;1.83;;;;;;;18.95;37.23;97854.91;10088425;29;20056;-59
2022/03/11 05:26:29;;;;;;;2.33;1.90;;;;;;;18.96;37.36;97863.78;10081872;29;20113;-59
2022/03/11 05:31:49;;;;;;;2.20;1.90;;;;;;;18.98;37.46;97863.50;10102945;29;20045;-59
2022/03/11 05:37:12;;;;;;;2.13;1.92;;;;;;;18.98;37.47;97875.09;10096675;29;20048;-59
2022/03/11 05:42:31;;;;;;;2.42;1.90;;;;;;;18.99;37.72;97863.19;10109593;29;20097;-58
2022/03/11 05:47:52;;;;;;;2.30;1.83;;;;;;;19.02;37.74;97872.63;10096454;29;20061;-57
2022/03/11 05:53:11;;;;;;;3.35;1.77;;;;;;;19.06;38.02;97876.34;10097668;29;20060;-58
2022/03/11 05:58:30;;;;;;;3.30;2.03;;;;;;;19.06;38.04;97874.44;10096742;29;20053;-58
2022/03/11 06:03:51;;;;;;;3.13;1.85;;;;;;;19.11;38.32;97881.63;10101725;29;20116;-60
2022/03/11 06:09:11;;;;;;;2.40;1.77;;;;;;;19.15;38.42;97883.47;10093353;29;20141;-59
2022/03/11 06:14:30;;;;;;;3.78;2.05;;;;;;;19.17;38.54;97892.09;10096497;29;20053;-58
2022/03/11 06:19:50;;;;;;;7.68;3.13;;;;;;;19.21;38.45;97888.78;10099086;29;20529;-58
2022/03/11 06:25:09;;;;;;;9.25;4.03;;;;;;;19.24;38.72;97894.38;10093440;29;20063;-59
2022/03/11 06:30:29;;;;;;;10.68;3.72;;;;;;;19.29;38.68;97888.13;10093275;29;20738;-58
2022/03/11 06:35:51;;;;;;;9.00;3.28;;;;;;;19.33;38.56;97900.72;10078480;29;20053;-58
2022/03/11 06:41:12;;;;;;;8.95;3.30;;;;;;;19.39;38.64;97906.84;10092954;29;20526;-58
2022/03/11 06:46:32;;;;;;;7.85;3.53;;;;;;;19.43;38.50;97905.16;10093360;29;20488;-59
2022/03/11 06:51:51;;;;;;;8.40;3.70;;;;;;;19.46;38.42;97907.25;10094179;29;20057;-59
2022/03/11 06:57:10;;;;;;;7.18;3.20;;;;;;;19.51;38.37;97907.19;10080901;29;20080;-58
2022/03/11 07:02:31;;;;;;;7.70;3.65;;;;;;;19.53;38.17;97917.69;10093149;29;20061;-60
2022/03/11 07:07:50;;;;;;;10.70;3.80;;;;;;;19.56;38.08;97906.28;10107715;29;20045;-59
2022/03/11 07:13:10;;;;;;;8.25;3.03;;;;;;;19.59;37.64;97910.31;10094983;29;20436;-59
2022/03/11 07:18:30;;;;;;;7.40;3.38;;;;;;;19.59;37.62;97915.72;10079307;29;20061;-59
2022/03/11 07:23:54;;;;;;;7.47;3.85;;;;;;;19.62;37.54;97909.69;10089688;29;20049;-58
2022/03/11 07:29:13;;;;;;;6.65;3.80;;;;;;;19.62;37.36;97910.53;10105965;29;20040;-59
2022/03/11 07:34:34;;;;;;;8.90;3.58;;;;;;;19.63;37.02;97922.13;10081368;29;20084;-59
2022/03/11 07:39:53;;;;;;;9.63;3.95;;;;;;;19.64;36.89;97921.84;10106847;29;20041;-59
2022/03/11 07:45:13;;;;;;;9.25;4.38;;;;;;;19.64;36.74;97913.72;10094793;29;20067;-58
2022/03/11 07:50:33;;;;;;;6.38;3.75;;;;;;;19.66;36.70;97910.72;10094733;29;20181;-59
2022/03/11 07:55:52;;;;;;;8.27;3.88;;;;;;;19.66;36.16;97916.94;10080182;29;20640;-59
2022/03/11 08:01:12;;;;;;;8.82;3.95;;;;;;;19.65;35.98;97926.13;10088927;29;20698;-59
2022/03/11 08:06:33;;;;;;;7.95;4.05;;;;;;;19.67;35.77;97939.34;10094087;29;20052;-59
2022/03/11 08:11:53;;;;;;;8.25;3.80;;;;;;;19.66;35.62;97935.03;10101999;29;20518;-59
2022/03/11 08:17:12;;;;;;;8.27;4.38;;;;;;;19.66;35.61;97938.56;10096478;29;20045;-58
2022/03/11 08:22:34;;;;;;;12.02;4.43;;;;;;;19.68;35.43;97949.88;10105182;29;20045;-59
2022/03/11 08:27:57;;;;;;;11.57;4.68;;;;;;;19.68;35.36;97939.06;10091469;29;20421;-58
2022/03/11 08:33:20;;;;;;;8.25;4.10;;;;;;;19.70;35.24;97949.59;10091439;29;20071;-59
2022/03/11 08:38:40;;;;;;;7.90;4.15;;;;;;;19.69;35.19;97946.06;10093205;29;20420;-59
2022/03/11 08:44:01;;;;;;;8.60;3.85;;;;;;;19.69;35.49;97937.16;10092711;29;20056;-58
2022/03/11 08:49:20;;;;;;;7.82;3.83;;;;;;;19.68;35.00;97952.59;10091362;29;20053;-59
2022/03/11 08:54:40;;;;;;;8.60;3.90;;;;;;;19.67;35.14;97945.56;10088095;29;20056;-58
2022/03/11 08:59:59;;;;;;;6.55;3.50;;;;;;;19.68;35.05;97940.94;10103155;29;20555;-59
2022/03/11 09:05:20;;;;;;;8.13;3.80;;;;;;;19.67;34.92;97948.25;10084885;29;20124;-59
2022/03/11 09:10:40;;;;;;;10.25;4.40;;;;;;;19.65;34.91;97939.66;10072951;29;20060;-58
2022/03/11 09:15:59;;;;;;;7.03;3.38;;;;;;;19.66;34.84;97943.16;10061598;29;20061;-59
2022/03/11 09:21:20;;;;;;;6.10;3.90;;;;;;;19.65;33.43;97936.16;10080698;29;20065;-58
2022/03/11 09:26:39;;;;;;;6.47;3.78;;;;;;;19.63;34.70;97935.66;10075568;29;20268;-58
2022/03/11 09:31:59;;;;;;;7.15;3.60;;;;;;;19.63;34.62;97932.94;10075663;29;20057;-59
2022/03/11 09:37:19;;;;;;;5.95;3.40;;;;;;;19.62;34.75;97936.72;10076246;29;20045;-59
2022/03/11 09:42:39;;;;;;;6.70;4.65;;;;;;;19.39;26.01;97942.00;10078742;29;20487;-58
2022/03/11 09:48:01;;;;;;;9.43;4.40;;;;;;;19.02;22.31;97948.22;10101480;29;20504;-57
2022/03/11 09:53:21;;;;;;;5.60;3.80;;;;;;;18.96;27.16;97942.09;10097546;29;20057;-59
2022/03/11 09:58:40;;;;;;;5.93;3.75;;;;;;;19.12;29.43;97938.06;10096318;29;20045;-58
2022/03/11 10:04:03;;;;;;;6.03;3.60;;;;;;;19.20;29.94;97920.41;10092451;29;20080;-62
2022/03/11 10:09:22;;;;;;;4.40;3.47;;;;;;;19.27;28.94;97933.53;10072262;29;20049;-58
2022/03/11 10:14:41;;;;;;;6.00;3.60;;;;;;;19.32;30.02;97919.94;10065298;29;20063;-58
2022/03/11 10:20:04;;;;;;;4.72;3.03;;;;;;;19.31;30.11;97916.44;10083662;29;20118;-55
2022/03/11 10:25:27;;;;;;;5.40;3.20;;;;;;;19.33;30.34;97927.75;10073203;29;20049;-58
2022/03/11 10:30:48;;;;;;;4.15;3.08;;;;;;;19.32;30.46;97918.03;10095174;29;20060;-58
2022/03/11 10:36:11;;;;;;;4.00;2.80;;;;;;;19.34;30.92;97909.63;10065952;29;20100;-57
2022/03/11 10:41:32;;;;;;;4.45;2.83;;;;;;;19.34;31.33;97925.84;10104946;29;20105;-58
2022/03/11 10:46:52;;;;;;;4.90;2.80;;;;;;;19.33;31.40;97926.97;10091034;29;20053;-58
2022/03/11 10:52:11;;;;;;;3.15;2.53;;;;;;;19.33;31.75;97926.97;10070709;29;20052;-58
2022/03/11 10:57:34;;;;;;;;;;;;;;;19.31;31.85;97921.03;10088604;29;20057;-57
2022/03/11 11:02:59;;;;;;;3.72;2.50;;;;;;;19.31;32.12;97921.03;10103475;29;20010;-58
2022/03/11 11:08:19;;;;;;;3.05;2.45;;;;;;;19.30;32.22;97909.41;10093477;29;20064;-57
2022/03/11 11:13:38;;;;;;;2.80;2.38;;;;;;;19.30;32.39;97911.31;10088049;29;20057;-58
2022/03/11 11:18:59;;;;;;;3.03;2.47;;;;;;;19.31;32.73;97904.84;10056743;29;20065;-58
2022/03/11 11:24:21;;;;;;;3.35;2.50;;;;;;;19.30;32.68;97897.81;10090053;29;20719;-57
2022/03/11 11:29:41;;;;;;;5.00;3.72;;;;;;;19.30;32.86;97887.00;10084791;29;20593;-57
2022/03/11 11:35:32;;;;;;;60.00;15.43;;;;;;;19.31;35.56;97885.94;10052242;29;20065;-57
2022/03/11 11:40:52;;;;;;;15.38;6.63;;;;;;;19.30;35.07;97876.19;10095104;29;20106;-56
2022/03/11 11:46:14;;;;;;;13.40;5.18;;;;;;;19.28;35.32;97878.41;10078233;29;20045;-57
2022/03/11 11:51:39;;;;;;;12.10;4.35;;;;;;;19.28;34.91;97868.38;10055304;29;20073;-58
2022/03/11 11:57:01;;;;;;;10.38;4.03;;;;;;;19.27;34.86;97872.19;10056363;29;20065;-58
2022/03/11 12:02:25;;;;;;;7.18;3.47;;;;;;;19.28;34.68;97867.59;8312991;29;10001453;-57
2022/03/11 12:07:48;;;;;;;6.85;3.33;;;;;;;19.26;34.45;97864.38;10007159;29;20045;-57
2022/03/11 12:13:08;;;;;;;9.77;3.17;;;;;;;19.25;34.75;97857.38;10017136;29;20052;-58
2022/03/11 12:18:45;;;;;;;8.88;3.22;;;;;;;19.24;34.57;97850.38;10025628;29;20054;-58
2022/03/11 12:24:33;;;;;;;5.82;3.00;;;;;;;19.24;34.35;97844.97;10016030;29;20050;-58
2022/03/11 12:29:53;;;;;;;5.60;3.03;;;;;;;19.22;34.30;97841.75;10017146;29;20463;-58
2022/03/11 12:35:12;;;;;;;5.28;2.70;;;;;;;19.22;34.23;97841.75;10017123;29;20061;-58
2022/03/11 12:40:34;;;;;;;4.13;2.42;;;;;;;19.20;34.18;97825.06;9998642;29;20057;-57
2022/03/11 12:45:56;;;;;;;5.85;2.83;;;;;;;19.19;34.16;97834.25;10021187;29;20050;-59
2022/03/11 12:51:18;;;;;;;4.15;2.40;;;;;;;19.19;34.12;97826.13;10023706;29;20058;-59
2022/03/11 12:56:37;;;;;;;4.75;2.40;;;;;;;19.19;34.36;97820.72;10023752;29;20058;-57
2022/03/11 13:01:57;;;;;;;4.95;2.40;;;;;;;19.17;34.42;97827.25;10020806;29;20054;-58
2022/03/11 13:07:17;;;;;;;3.10;2.20;;;;;;;19.15;34.06;97810.53;10016557;29;20426;-58
2022/03/11 13:12:37;;;;;;;3.60;2.28;;;;;;;19.14;33.95;97808.91;10034866;29;20049;-59
2022/03/11 13:17:57;;;;;;;2.80;2.15;;;;;;;19.15;33.88;97788.09;10020278;29;20069;-58
2022/03/11 13:23:31;;;;;;;3.05;2.17;;;;;;;19.14;33.85;97808.13;10022884;29;20056;-58
2022/03/11 13:28:59;;;;;;;3.17;2.50;;;;;;;19.13;33.93;97788.44;10023198;29;20073;-58
2022/03/11 13:34:31;;;;;;;2.20;1.87;;;;;;;19.12;33.95;97778.72;10019016;29;20050;-60
2022/03/11 13:40:07;;;;;;;3.72;2.15;;;;;;;19.11;33.84;97782.53;10022615;29;20309;-60
2022/03/11 13:45:28;;;;;;;2.75;2.10;;;;;;;19.12;33.89;97778.72;10020939;29;20464;-60
2022/03/11 13:50:58;;;;;;;3.03;2.20;;;;;;;19.10;33.67;97780.91;10022485;29;20050;-60
2022/03/11 13:56:18;;;;;;;2.95;2.05;;;;;;;19.10;33.85;97780.91;10019652;29;20054;-60
2022/03/11 14:01:39;;;;;;;2.40;1.63;;;;;;;19.08;33.75;97783.09;10020929;29;20058;-60
2022/03/11 14:07:09;;;;;;;2.40;1.77;;;;;;;19.08;33.85;97772.31;10021963;29;20046;-60
2022/03/11 14:12:29;;;;;;;2.30;1.80;;;;;;;19.08;33.86;97777.69;10021555;29;20091;-60
2022/03/11 14:17:51;;;;;;;2.47;1.90;;;;;;;19.07;33.99;97776.13;10032358;29;20056;-60
2022/03/11 14:23:11;;;;;;;3.28;2.10;;;;;;;19.08;34.05;97766.09;10016644;29;20069;-60
2022/03/11 14:28:30;;;;;;;3.80;1.90;;;;;;;19.08;34.03;97772.31;10012934;29;20114;-60
2022/03/11 14:33:50;;;;;;;4.18;2.00;;;;;;;19.09;34.17;97778.50;10023999;29;20102;-58
2022/03/11 14:39:09;;;;;;;4.60;2.05;;;;;;;19.08;34.50;97777.69;10017600;29;20156;-58
2022/03/11 14:44:30;;;;;;;3.30;1.80;;;;;;;19.07;34.38;97762.63;10018938;29;20077;-58
2022/03/11 14:49:50;;;;;;;2.78;2.00;;;;;;;19.08;34.56;97764.19;10031094;29;20670;-57
2022/03/11 14:55:10;;;;;;;3.40;1.65;;;;;;;19.07;35.01;97754.50;10018944;29;20061;-56
2022/03/11 15:00:30;;;;;;;4.03;2.20;;;;;;;19.06;33.88;97757.50;10018844;29;20050;-58
2022/03/11 15:05:49;;;;;;;3.53;2.70;;;;;;;19.05;32.98;97750.47;10015169;29;20053;-57
2022/03/11 15:11:09;;;;;;;3.45;2.25;;;;;;;19.03;32.98;97744.56;10018535;29;20459;-58
2022/03/11 15:16:28;;;;;;;5.13;2.63;;;;;;;19.03;33.10;97737.28;10028821;29;20050;-58
2022/03/11 15:21:50;;;;;;;4.43;2.50;;;;;;;19.02;33.21;97732.97;10016273;29;20092;-58
2022/03/11 15:27:09;;;;;;;5.20;3.22;;;;;;;19.01;32.65;97734.06;10016316;29;20391;-56
2022/03/11 15:32:29;;;;;;;6.30;4.75;;;;;;;18.58;22.29;97713.47;10018801;29;20426;-58
2022/03/11 15:37:50;;;;;;;4.82;3.42;;;;;;;18.57;26.13;97725.34;10033695;29;20057;-58
2022/03/11 15:43:09;;;;;;;4.18;3.17;;;;;;;18.66;29.52;97714.69;10016185;29;20066;-57
2022/03/11 15:48:29;;;;;;;4.63;2.80;;;;;;;18.72;29.22;97712.72;10014182;29;20129;-58
2022/03/11 15:53:48;;;;;;;3.30;2.65;;;;;;;18.76;29.62;97709.09;10024288;29;20102;-57
2022/03/11 15:59:08;;;;;;;3.95;2.83;;;;;;;18.78;30.08;97717.72;9976732;29;20065;-57
2022/03/11 16:04:28;;;;;;;4.57;2.70;;;;;;;18.80;30.57;97719.31;9974955;29;20530;-58
2022/03/11 16:09:50;;;;;;;5.13;2.90;;;;;;;18.83;30.94;97730.34;9975955;29;20062;-58
2022/03/11 16:15:11;;;;;;;2.50;2.30;;;;;;;18.85;31.40;97719.25;9976612;29;20107;-58
2022/03/11 16:20:30;;;;;;;4.32;2.60;;;;;;;18.86;31.57;97721.66;9980492;29;20062;-57
2022/03/11 16:25:50;;;;;;;2.88;2.25;;;;;;;18.88;31.87;97719.47;9980321;29;20115;-57
2022/03/11 16:31:09;;;;;;;2.97;2.42;;;;;;;18.90;32.31;97725.38;9991884;29;20042;-58
2022/03/11 16:36:29;;;;;;;3.72;2.40;;;;;;;18.93;32.34;97732.88;10007898;29;20463;-57
2022/03/11 16:41:49;;;;;;;2.97;2.30;;;;;;;18.94;32.72;97731.75;10017676;29;20058;-57
2022/03/11 16:47:09;;;;;;;3.42;3.03;;;;;;;18.94;29.97;97739.88;10013965;29;20490;-58
2022/03/11 16:52:29;;;;;;;3.30;2.03;;;;;;;18.96;32.25;97736.88;10026507;29;20046;-58
2022/03/11 16:57:49;;;;;;;2.58;2.38;;;;;;;19.01;32.31;97733.28;10015379;29;20062;-58
2022/03/11 17:03:08;;;;;;;3.72;2.00;;;;;;;19.05;32.73;97737.81;10000535;29;20102;-58
2022/03/11 17:08:28;;;;;;;4.85;2.80;;;;;;;19.10;33.32;97737.69;10028168;29;20042;-57
2022/03/11 17:13:49;;;;;;;4.90;2.70;;;;;;;19.17;33.40;97743.50;10015059;29;20061;-58
2022/03/11 17:19:10;;;;;;;4.07;2.72;;;;;;;19.26;33.85;97750.91;10015924;29;20414;-58
2022/03/11 17:24:29;;;;;;;3.63;2.50;;;;;;;19.31;33.89;97740.03;10016085;29;20050;-58
2022/03/11 17:29:49;;;;;;;4.57;2.70;;;;;;;19.35;34.47;97739.13;10016138;29;20077;-58
2022/03/11 17:35:09;;;;;;;4.57;2.90;;;;;;;19.40;34.50;97738.22;10019695;29;20403;-58
2022/03/11 17:40:28;;;;;;;7.93;3.00;;;;;;;19.44;34.69;97741.13;10021460;29;20122;-57
2022/03/11 17:45:48;;;;;;;9.13;3.00;;;;;;;19.46;35.04;97742.41;10019107;29;20066;-58
2022/03/11 17:51:09;;;;;;;7.00;2.90;;;;;;;19.51;35.72;97734.22;10015835;29;20065;-58
2022/03/11 17:56:28;;;;;;;7.63;3.00;;;;;;;19.53;36.25;97733.91;10034554;29;20050;-59
2022/03/11 18:01:51;;;;;;;6.72;3.50;;;;;;;19.54;36.68;97727.41;10033699;29;20407;-58
2022/03/11 18:07:11;;;;;;;7.10;2.83;;;;;;;19.57;38.47;97737.63;10022140;29;20110;-59
2022/03/11 18:12:31;;;;;;;5.47;3.30;;;;;;;19.61;39.05;97740.53;10020907;29;20085;-57
2022/03/11 18:17:51;;;;;;;6.65;3.38;;;;;;;19.63;39.10;97743.72;10020124;29;20060;-57
2022/03/11 18:23:13;;;;;;;6.80;3.47;;;;;;;19.65;39.16;97741.53;10033502;29;20102;-57
2022/03/11 18:28:32;;;;;;;7.78;4.05;;;;;;;19.65;39.16;97736.13;10021139;29;20054;-57
2022/03/11 18:33:52;;;;;;;8.68;3.92;;;;;;;19.67;38.90;97736.59;10018105;29;20050;-57
2022/03/11 18:39:11;;;;;;;9.05;3.40;;;;;;;19.67;38.96;97739.31;10020506;29;20065;-57
2022/03/11 18:44:30;;;;;;;9.77;3.75;;;;;;;19.69;38.88;97739.81;10031919;29;20061;-58
2022/03/11 18:49:50;;;;;;;7.60;3.55;;;;;;;19.69;39.09;97737.09;10030759;29;20045;-58
2022/03/11 18:55:10;;;;;;;6.85;3.60;;;;;;;19.69;38.74;97726.28;10031258;29;20050;-57
2022/03/11 19:00:32;;;;;;;7.13;3.50;;;;;;;19.70;38.73;97734.09;10020227;29;20114;-57
2022/03/11 19:05:51;;;;;;;9.90;3.78;;;;;;;19.71;38.65;97726.78;10019837;29;20600;-57
2022/03/11 19:11:11;;;;;;;8.73;3.75;;;;;;;19.71;38.64;97724.91;10018666;29;20057;-57
2022/03/11 19:16:31;;;;;;;11.75;4.55;;;;;;;19.71;38.56;97721.38;10006125;29;20073;-57
2022/03/11 19:21:51;;;;;;;11.13;4.50;;;;;;;19.71;38.68;97715.97;10018846;29;20046;-57
2022/03/11 19:27:11;;;;;;;9.80;4.15;;;;;;;19.71;38.91;97711.38;10018787;29;20442;-57
2022/03/11 19:32:33;;;;;;;8.25;4.15;;;;;;;19.72;39.12;97709.50;10017962;29;20081;-57
2022/03/11 19:37:54;;;;;;;7.88;3.65;;;;;;;19.72;38.97;97723.03;10016313;29;20398;-57
2022/03/11 19:43:14;;;;;;;7.50;3.35;;;;;;;19.72;39.39;97710.31;10016414;29;20422;-58
2022/03/11 19:48:34;;;;;;;8.25;3.65;;;;;;;19.72;39.21;97723.81;10014840;29;20061;-58
2022/03/11 19:53:54;;;;;;;7.35;3.42;;;;;;;19.71;38.92;97726.78;10012409;29;20054;-57
2022/03/11 19:59:15;;;;;;;5.03;2.90;;;;;;;19.70;38.91;97733.31;10018110;29;20065;-57
2022/03/11 20:04:35;;;;;;;5.05;2.63;;;;;;;19.70;38.71;97746.84;10014059;29;20050;-58
2022/03/11 20:09:54;;;;;;;4.70;2.70;;;;;;;19.69;38.56;97737.09;10018113;29;20068;-58
2022/03/11 20:15:14;;;;;;;5.68;2.85;;;;;;;19.68;38.50;97738.19;10030208;29;20053;-58
2022/03/11 20:20:34;;;;;;;4.93;2.92;;;;;;;19.67;38.23;97734.69;10008052;29;20426;-57
2022/03/11 20:25:55;;;;;;;4.97;2.80;;;;;;;19.66;38.15;97740.41;10003051;29;20497;-59
2022/03/11 20:31:15;;;;;;;5.40;2.55;;;;;;;19.66;39.04;97740.41;10010572;29;20062;-58
2022/03/11 20:36:34;;;;;;;5.90;2.47;;;;;;;19.66;38.91;97743.94;10005476;29;20054;-57
2022/03/11 20:41:54;;;;;;;3.67;2.58;;;;;;;19.66;38.82;97737.69;10004520;29;20478;-57
2022/03/11 20:47:14;;;;;;;6.22;2.85;;;;;;;19.65;38.88;97744.22;10015603;29;20053;-57
2022/03/11 20:52:35;;;;;;;5.75;2.60;;;;;;;19.65;38.73;97750.41;9982304;29;20066;-57
2022/03/11 20:57:56;;;;;;;6.95;3.00;;;;;;;19.63;38.82;97746.44;10012000;29;20057;-57
2022/03/11 21:03:16;;;;;;;5.40;2.63;;;;;;;19.64;38.34;97745.31;10009425;29;20061;-57
2022/03/11 21:08:37;;;;;;;5.90;2.97;;;;;;;19.62;38.44;97742.94;9987132;29;20062;-58
2022/03/11 21:13:57;;;;;;;6.35;3.10;;;;;;;19.61;38.44;97741.31;10031860;29;20087;-58
2022/03/11 21:19:17;;;;;;;7.45;3.25;;;;;;;19.61;38.42;97735.13;10017744;29;20067;-57
2022/03/11 21:24:40;;;;;;;10.80;3.50;;;;;;;19.60;38.28;97733.50;10010781;29;20073;-57
2022/03/11 21:30:00;;;;;;;8.98;3.53;;;;;;;19.59;38.22;97737.31;10009460;29;20068;-57
2022/03/11 21:35:20;;;;;;;7.72;3.92;;;;;;;19.58;38.16;97730.31;10022498;29;20114;-57
2022/03/11 21:40:39;;;;;;;8.95;3.90;;;;;;;19.55;38.00;97729.81;10021757;29;20110;-57
2022/03/11 21:45:59;;;;;;;9.48;3.83;;;;;;;19.55;37.94;97724.41;10021210;29;20081;-57
2022/03/11 21:51:21;;;;;;;10.65;4.70;;;;;;;19.54;37.92;97728.22;10020903;29;20061;-57
2022/03/11 21:56:40;;;;;;;14.02;4.75;;;;;;;19.53;37.89;97723.91;10022651;29;20399;-57
2022/03/11 22:02:00;;;;;;;11.73;5.10;;;;;;;19.51;37.71;97715.28;10021833;29;20065;-57
2022/03/11 22:07:19;;;;;;;11.63;4.95;;;;;;;19.51;37.72;97715.28;10021698;29;20058;-57
2022/03/11 22:12:39;;;;;;;9.98;4.38;;;;;;;19.50;37.72;97710.19;10020893;29;20149;-57
2022/03/11 22:17:59;;;;;;;9.65;5.05;;;;;;;19.48;37.60;97702.41;10021674;29;20122;-57
2022/03/11 22:23:19;;;;;;;10.55;4.75;;;;;;;19.47;37.69;97713.50;10011934;29;20053;-57
2022/03/11 22:28:39;;;;;;;9.48;4.60;;;;;;;19.45;37.60;97700.28;10011341;29;20053;-57
2022/03/11 22:33:59;;;;;;;10.25;4.97;;;;;;;19.45;37.66;97702.19;9993402;29;20065;-57
2022/03/11 22:39:18;;;;;;;9.32;4.55;;;;;;;19.45;37.67;97696.78;9990681;29;20114;-57
2022/03/11 22:44:38;;;;;;;10.43;5.65;;;;;;;19.42;37.66;97689.28;9984499;29;20388;-57
2022/03/11 22:55:48;;;;;;;8.52;4.47;;;;;;;19.39;38.12;97679.88;9991491;29;20053;-57
2022/03/11 23:01:07;;;;;;;6.78;3.92;;;;;;;19.38;38.10;97685.59;10015739;29;20153;-57
2022/03/11 23:12:06;;;;;;;7.07;3.67;;;;;;;19.35;38.17;97676.97;10014513;29;20083;-57
2022/03/11 23:17:26;;;;;;;6.85;3.55;;;;;;;19.33;37.94;97689.19;10008775;29;20111;-57
2022/03/11 23:22:46;;;;;;;6.63;3.10;;;;;;;19.32;37.73;97690.28;10012362;29;20061;-58
2022/03/11 23:28:07;;;;;;;5.47;3.00;;;;;;;19.30;37.81;97695.97;10012333;29;20054;-57
2022/03/11 23:33:47;;;;;;;6.25;3.30;;;;;;;19.29;37.58;97697.09;10017500;29;20477;-58
2022/03/11 23:39:08;;;;;;;3.88;2.63;;;;;;;19.28;37.41;97683.88;10016660;29;20066;-57
2022/03/11 23:44:27;;;;;;;6.30;2.85;;;;;;;19.26;37.46;97686.88;10018248;29;20058;-57
2022/03/11 23:49:47;;;;;;;5.80;3.05;;;;;;;19.24;37.28;97691.78;10017708;29;20049;-57
2022/03/11 23:55:07;;;;;;;6.35;3.00;;;;;;;19.23;37.26;97692.06;10018461;29;20551;-58
